Time;durP1;ratioP1;P1;durP2;ratioP2;P2;SDS_P1;SDS_P2;PMS_P1;PMS_P2;Temp;Humidity;BMP_temperature;BMP_pressure;BME280_temperature;BME280_humidity;BME280_pressure;Samples;Min_cycle;Max_cycle;Signal;HPM_P1;HPM_P2
2021/03/21 00:00:52;;;;;;;24.37;13.97;;;9.20;99.90;;;;;;5083983;28;20199;-80
2021/03/21 00:03:20;;;;;;;22.57;12.93;;;9.20;99.90;;;;;;5080269;28;20667;-81
2021/03/21 00:05:46;;;;;;;20.77;12.73;;;9.10;99.90;;;;;;5082913;28;20173;-81
2021/03/21 00:08:25;;;;;;;24.00;13.43;;;9.10;99.90;;;;;;5087880;28;20173;-81
2021/03/21 00:10:57;;;;;;;23.80;13.63;;;9.10;99.90;;;;;;5086814;28;20188;-81
2021/03/21 00:13:24;;;;;;;21.97;12.80;;;9.10;99.90;;;;;;5084174;28;20211;-81
2021/03/21 00:15:52;;;;;;;22.87;13.00;;;9.10;99.90;;;;;;5065066;28;20280;-78
2021/03/21 00:18:21;;;;;;;22.57;12.70;;;9.10;99.90;;;;;;5087446;28;20199;-79
2021/03/21 00:20:47;;;;;;;24.37;12.90;;;9.10;99.90;;;;;;5087002;28;20180;-79
2021/03/21 00:23:13;;;;;;;23.80;13.70;;;9.10;99.90;;;;;;5085272;28;20248;-79
2021/03/21 00:25:39;;;;;;;22.93;14.10;;;9.20;99.90;;;;;;5093348;28;20191;-79
2021/03/21 00:28:07;;;;;;;24.27;13.37;;;9.20;99.90;;;;;;5089871;28;20260;-79
2021/03/21 00:30:37;;;;;;;25.07;14.10;;;9.20;99.90;;;;;;5084540;28;20174;-79
2021/03/21 00:33:05;;;;;;;24.23;13.60;;;9.20;99.90;;;;;;5087855;28;20309;-80
2021/03/21 00:35:32;;;;;;;24.77;13.57;;;9.10;99.90;;;;;;5090240;28;20171;-79
2021/03/21 00:38:00;;;;;;;23.60;14.15;;;9.00;99.90;;;;;;5087841;28;20429;-80
2021/03/21 00:40:27;;;;;;;21.70;13.20;;;8.90;99.90;;;;;;5091740;28;20183;-80
2021/03/21 00:42:54;;;;;;;23.40;13.93;;;8.80;99.90;;;;;;5075724;28;20280;-81
2021/03/21 00:45:22;;;;;;;22.33;13.47;;;8.80;99.90;;;;;;5095422;28;20566;-80
2021/03/21 00:47:48;;;;;;;26.50;14.33;;;8.80;99.90;;;;;;5090452;28;20641;-79
2021/03/21 00:50:19;;;;;;;23.83;13.90;;;8.80;99.90;;;;;;5068113;28;20180;-79
2021/03/21 00:52:45;;;;;;;28.10;14.33;;;9.00;99.90;;;;;;5089164;28;20193;-80
2021/03/21 00:55:12;;;;;;;21.80;13.70;;;9.10;99.90;;;;;;5082808;28;20182;-79
2021/03/21 00:57:38;;;;;;;24.03;14.63;;;9.10;99.90;;;;;;5073925;28;20176;-79
2021/03/21 01:00:09;;;;;;;24.13;14.80;;;9.10;99.90;;;;;;5089672;28;20184;-79
2021/03/21 01:02:35;;;;;;;25.87;14.73;;;9.10;99.90;;;;;;5086187;28;20726;-79
2021/03/21 01:05:01;;;;;;;25.20;14.70;;;9.00;99.90;;;;;;5090727;28;20292;-79
2021/03/21 01:07:26;;;;;;;25.00;15.00;;;9.10;99.90;;;;;;5090487;28;20185;-80
2021/03/21 01:09:52;;;;;;;24.07;14.30;;;9.10;99.90;;;;;;5087524;28;20195;-79
2021/03/21 01:12:18;;;;;;;26.43;15.03;;;9.10;99.90;;;;;;5091043;28;20208;-80
2021/03/21 01:14:43;;;;;;;24.27;14.73;;;9.10;99.90;;;;;;5088740;28;20184;-80
2021/03/21 01:17:09;;;;;;;27.53;15.77;;;9.10;99.90;;;;;;5092383;28;20176;-80
2021/03/21 01:19:35;;;;;;;26.07;15.07;;;9.10;99.90;;;;;;5074526;28;20546;-80
2021/03/21 01:22:01;;;;;;;24.90;14.67;;;9.10;99.90;;;;;;5090263;28;20194;-80
2021/03/21 01:24:27;;;;;;;25.97;15.30;;;9.10;99.90;;;;;;5085270;28;20203;-80
2021/03/21 01:26:53;;;;;;;27.03;15.10;;;9.00;99.90;;;;;;5084521;28;20221;-80
2021/03/21 01:29:19;;;;;;;27.63;15.90;;;9.10;99.90;;;;;;5089645;28;20180;-80
2021/03/21 01:31:45;;;;;;;26.87;16.07;;;9.00;99.90;;;;;;5076324;28;20262;-80
2021/03/21 01:34:14;;;;;;;25.73;15.33;;;9.00;99.90;;;;;;5088113;28;20224;-80
2021/03/21 01:36:40;;;;;;;26.13;15.40;;;9.00;99.90;;;;;;5091210;28;20188;-80
2021/03/21 01:39:24;;;;;;;26.20;15.73;;;9.00;99.90;;;;;;5086617;28;20188;-79
2021/03/21 01:41:55;;;;;;;27.13;15.97;;;9.00;99.90;;;;;;5086241;28;20268;-80
2021/03/21 01:44:21;;;;;;;26.23;15.47;;;9.10;99.90;;;;;;5090014;28;20304;-80
2021/03/21 01:46:58;;;;;;;28.53;15.67;;;9.10;99.90;;;;;;5068739;28;20268;-80
2021/03/21 01:49:30;;;;;;;26.73;15.97;;;9.10;99.90;;;;;;5087718;28;20580;-80
2021/03/21 01:51:57;;;;;;;28.70;16.70;;;9.10;99.90;;;;;;5087664;28;20226;-80
2021/03/21 01:54:24;;;;;;;28.30;16.23;;;9.00;99.90;;;;;;5085370;28;20263;-80
2021/03/21 01:56:51;;;;;;;29.20;16.43;;;9.10;99.90;;;;;;5069533;28;20174;-80
2021/03/21 01:59:21;;;;;;;28.93;16.63;;;9.10;99.90;;;;;;5077179;28;20276;-80
2021/03/21 02:01:48;;;;;;;31.97;17.67;;;9.10;99.90;;;;;;5073334;28;20211;-80
2021/03/21 02:04:13;;;;;;;28.83;17.03;;;8.90;99.90;;;;;;5086933;28;20208;-80
2021/03/21 02:07:00;;;;;;;30.80;17.93;;;8.90;99.90;;;;;;5088107;28;20631;-80
2021/03/21 02:09:50;;;;;;;31.57;17.77;;;8.90;99.90;;;;;;5074125;28;20185;-80
2021/03/21 02:12:42;;;;;;;31.87;17.10;;;8.90;99.90;;;;;;5090668;28;20192;-80
2021/03/21 02:15:23;;;;;;;31.70;17.60;;;8.90;99.90;;;;;;5088965;28;20200;-80
2021/03/21 02:18:27;;;;;;;33.23;19.00;;;9.00;99.90;;;;;;5084787;28;20183;-80
2021/03/21 02:21:28;;;;;;;34.07;17.50;;;9.10;99.90;;;;;;5084115;28;20655;-79
2021/03/21 02:24:29;;;;;;;33.53;17.60;;;9.10;99.90;;;;;;5066510;28;20568;-80
2021/03/21 02:27:04;;;;;;;33.83;18.80;;;8.90;99.90;;;;;;5084094;28;20213;-79
2021/03/21 02:29:48;;;;;;;31.90;18.17;;;8.90;99.90;;;;;;5075876;28;20181;-79
2021/03/21 02:32:40;;;;;;;34.00;18.53;;;9.00;99.90;;;;;;5083621;28;20681;-80
2021/03/21 02:35:50;;;;;;;32.87;18.87;;;9.00;99.90;;;;;;5083196;28;20188;-80
2021/03/21 02:38:39;;;;;;;33.10;17.83;;;9.00;99.90;;;;;;5087228;28;20189;-80
2021/03/21 02:41:09;;;;;;;31.40;18.40;;;9.00;99.90;;;;;;5087831;28;20554;-80
2021/03/21 02:43:50;;;;;;;35.17;20.20;;;9.00;99.90;;;;;;5087671;28;20217;-81
2021/03/21 02:46:23;;;;;;;34.60;19.33;;;9.00;99.90;;;;;;5084046;28;20649;-80
2021/03/21 02:49:15;;;;;;;35.77;19.67;;;9.10;99.90;;;;;;5092659;28;20236;-80
2021/03/21 02:51:45;;;;;;;34.07;19.27;;;9.10;99.90;;;;;;5089866;28;20196;-80
2021/03/21 02:54:29;;;;;;;38.53;21.40;;;9.10;99.90;;;;;;5087807;28;20205;-80
2021/03/21 02:57:18;;;;;;;35.97;20.53;;;9.10;99.90;;;;;;5069525;28;20524;-81
2021/03/21 02:59:58;;;;;;;35.17;20.80;;;9.10;99.90;;;;;;5086738;28;20183;-80
2021/03/21 03:02:50;;;;;;;35.10;21.30;;;9.10;99.90;;;;;;5086592;28;20189;-80
2021/03/21 03:05:20;;;;;;;39.67;21.43;;;9.20;99.90;;;;;;5079066;28;20235;-80
2021/03/21 03:08:02;;;;;;;38.90;22.53;;;9.20;99.90;;;;;;5085772;28;20268;-80
2021/03/21 03:11:03;;;;;;;38.50;21.23;;;9.20;99.90;;;;;;5075947;28;20209;-80
2021/03/21 03:13:40;;;;;;;37.00;21.23;;;9.20;99.90;;;;;;5088292;28;20181;-80
2021/03/21 03:16:21;;;;;;;37.37;21.43;;;9.20;99.90;;;;;;5084954;28;20184;-80
2021/03/21 03:19:02;;;;;;;37.70;21.87;;;9.20;99.90;;;;;;5089889;28;20654;-81
2021/03/21 03:21:44;;;;;;;40.57;22.07;;;9.10;99.90;;;;;;5086811;28;20602;-81
2021/03/21 03:24:31;;;;;;;39.23;22.40;;;9.10;99.90;;;;;;5084205;28;20201;-80
2021/03/21 03:27:14;;;;;;;38.00;22.20;;;9.20;99.90;;;;;;5071238;28;20583;-81
2021/03/21 03:29:43;;;;;;;37.73;21.37;;;9.20;99.90;;;;;;5082607;28;20225;-80
2021/03/21 03:32:13;;;;;;;41.30;22.43;;;9.20;99.90;;;;;;5089173;28;20196;-80
2021/03/21 03:34:45;;;;;;;38.27;21.87;;;9.20;99.90;;;;;;5071936;28;20192;-81
2021/03/21 03:37:12;;;;;;;37.73;21.77;;;9.20;99.90;;;;;;5085920;28;20184;-81
2021/03/21 03:39:39;;;;;;;39.47;21.30;;;9.20;99.90;;;;;;5089128;28;20264;-81
2021/03/21 03:42:32;;;;;;;38.23;21.50;;;9.10;99.90;;;;;;5084193;28;20206;-80
2021/03/21 03:45:11;;;;;;;39.73;22.53;;;9.10;99.90;;;;;;5084410;28;20196;-80
2021/03/21 03:47:59;;;;;;;42.10;22.63;;;9.10;99.90;;;;;;5090192;28;20175;-81
2021/03/21 03:50:43;;;;;;;40.20;22.67;;;9.20;99.90;;;;;;5085563;28;20206;-79
2021/03/21 03:53:38;;;;;;;40.80;22.27;;;9.20;99.90;;;;;;5069934;28;20238;-79
2021/03/21 03:56:12;;;;;;;46.97;28.50;;;9.20;99.90;;;;;;5085154;28;20448;-80
2021/03/21 03:58:49;;;;;;;42.60;24.67;;;9.10;99.90;;;;;;5088930;28;20605;-79
2021/03/21 04:01:26;;;;;;;40.97;23.23;;;9.30;99.90;;;;;;5094288;28;20762;-79
2021/03/21 04:03:57;;;;;;;38.00;21.63;;;9.30;99.90;;;;;;5086273;28;20208;-79
2021/03/21 04:06:38;;;;;;;38.77;21.87;;;9.30;99.90;;;;;;5085189;28;20648;-79
2021/03/21 04:09:23;;;;;;;38.87;21.80;;;9.20;99.90;;;;;;5086241;28;20264;-80
2021/03/21 04:12:11;;;;;;;39.93;21.73;;;9.30;99.90;;;;;;5085942;28;20276;-80
2021/03/21 04:14:44;;;;;;;37.83;21.63;;;9.20;99.90;;;;;;5077105;28;20263;-80
2021/03/21 04:17:24;;;;;;;40.73;22.80;;;9.30;99.90;;;;;;5084666;28;20196;-80
2021/03/21 04:19:55;;;;;;;39.93;21.37;;;9.20;99.90;;;;;;5087119;28;20235;-80
2021/03/21 04:22:29;;;;;;;39.17;23.00;;;9.20;99.90;;;;;;5091157;28;20185;-80
2021/03/21 04:25:03;;;;;;;41.53;22.37;;;9.20;99.90;;;;;;5090819;28;20211;-80
2021/03/21 04:27:35;;;;;;;41.77;23.03;;;9.20;99.90;;;;;;5090940;28;20666;-80
2021/03/21 04:30:08;;;;;;;44.57;23.47;;;9.20;99.90;;;;;;5089942;28;20186;-80
2021/03/21 04:32:39;;;;;;;42.60;22.67;;;9.20;99.90;;;;;;5089209;28;20294;-80
2021/03/21 04:35:11;;;;;;;43.80;22.77;;;9.30;99.90;;;;;;5073778;28;20313;-80
2021/03/21 04:37:38;;;;;;;45.30;23.60;;;9.30;99.90;;;;;;5075180;28;20184;-80
2021/03/21 04:40:06;;;;;;;39.90;22.67;;;9.30;99.90;;;;;;5088167;28;20187;-80
2021/03/21 04:42:41;;;;;;;45.90;23.57;;;9.40;99.90;;;;;;5089529;28;20195;-80
2021/03/21 04:45:16;;;;;;;43.50;23.57;;;9.40;99.90;;;;;;5085425;28;20225;-80
2021/03/21 04:47:53;;;;;;;43.20;22.77;;;9.40;99.90;;;;;;5078998;28;20207;-80
2021/03/21 04:50:19;;;;;;;44.27;23.77;;;9.50;99.90;;;;;;5088996;28;20183;-80
2021/03/21 04:52:53;;;;;;;45.27;24.30;;;9.50;99.90;;;;;;5088849;28;20169;-79
2021/03/21 04:55:33;;;;;;;45.60;23.93;;;9.40;99.90;;;;;;5077485;28;20191;-80
2021/03/21 04:58:04;;;;;;;46.07;23.80;;;9.40;99.90;;;;;;5091244;28;20214;-80
2021/03/21 05:00:33;;;;;;;48.00;25.00;;;9.40;99.90;;;;;;5088361;28;20198;-80
2021/03/21 05:03:07;;;;;;;48.43;24.63;;;9.40;99.90;;;;;;5073216;28;20204;-79
2021/03/21 05:05:46;;;;;;;49.20;25.80;;;9.40;99.90;;;;;;5087176;28;20210;-79
2021/03/21 05:08:23;;;;;;;51.37;25.70;;;9.40;99.90;;;;;;5083873;28;20176;-79
2021/03/21 05:10:57;;;;;;;48.73;24.77;;;9.40;99.90;;;;;;5086640;28;20214;-79
2021/03/21 05:13:32;;;;;;;49.43;25.87;;;9.50;99.90;;;;;;5092091;28;20209;-79
2021/03/21 05:16:25;;;;;;;51.60;26.27;;;9.60;99.90;;;;;;5088409;28;20175;-79
2021/03/21 05:19:19;;;;;;;54.37;26.37;;;9.40;99.90;;;;;;5073834;28;20183;-79
2021/03/21 05:22:00;;;;;;;51.50;27.47;;;9.40;99.90;;;;;;5069550;28;20188;-80
2021/03/21 05:24:28;;;;;;;52.40;26.77;;;9.50;99.90;;;;;;5072966;28;20216;-79
2021/03/21 05:26:56;;;;;;;49.40;25.60;;;9.50;99.90;;;;;;5083591;28;20204;-80
2021/03/21 05:29:47;;;;;;;53.97;26.97;;;9.40;99.90;;;;;;5087032;28;20180;-79
2021/03/21 05:32:16;;;;;;;49.40;26.07;;;9.40;99.90;;;;;;5088225;28;20192;-82
2021/03/21 05:34:42;;;;;;;49.07;27.07;;;9.50;99.90;;;;;;5072056;28;20246;-81
2021/03/21 05:37:47;;;;;;;55.57;26.77;;;9.50;99.90;;;;;;5088113;28;20271;-81
2021/03/21 05:40:27;;;;;;;50.47;26.13;;;9.60;99.90;;;;;;5089162;28;20195;-81
2021/03/21 05:43:12;;;;;;;53.60;27.47;;;9.70;99.90;;;;;;5070433;28;20180;-81
2021/03/21 05:46:35;;;;;;;55.33;27.77;;;9.70;99.90;;;;;;5091186;28;20195;-81
2021/03/21 05:49:32;;;;;;;56.27;28.00;;;9.60;99.90;;;;;;5027025;28;20267;-80
2021/03/21 05:52:32;;;;;;;57.30;28.47;;;9.70;99.90;;;;;;5016378;28;20266;-80
2021/03/21 05:55:20;;;;;;;58.77;29.07;;;9.70;99.90;;;;;;5084420;28;20263;-80
2021/03/21 05:58:14;;;;;;;58.23;28.30;;;9.60;99.90;;;;;;5090629;28;20270;-80
2021/03/21 06:01:17;;;;;;;61.60;30.20;;;9.60;99.90;;;;;;5089261;28;20168;-80
2021/03/21 06:04:12;;;;;;;56.17;28.97;;;9.50;99.90;;;;;;5083531;28;20211;-81
2021/03/21 06:06:58;;;;;;;54.33;28.10;;;9.40;99.90;;;;;;5067654;28;20204;-80
2021/03/21 06:09:51;;;;;;;56.17;28.47;;;9.40;99.90;;;;;;5083545;28;20177;-80
2021/03/21 06:12:35;;;;;;;58.50;30.03;;;9.40;99.90;;;;;;5085447;28;20241;-80
2021/03/21 06:15:38;;;;;;;57.53;29.73;;;9.40;99.90;;;;;;5090073;28;20245;-80
2021/03/21 06:18:34;;;;;;;57.67;29.87;;;9.50;99.90;;;;;;5070320;28;20194;-82
2021/03/21 06:21:09;;;;;;;58.47;29.47;;;9.50;99.90;;;;;;5082193;28;20272;-78
2021/03/21 06:24:03;;;;;;;57.43;28.63;;;9.60;99.90;;;;;;5072663;28;20235;-79
2021/03/21 06:26:55;;;;;;;64.17;31.80;;;9.70;99.90;;;;;;5080309;28;20250;-79
2021/03/21 06:29:29;;;;;;;56.67;29.33;;;9.90;99.90;;;;;;5087118;28;20560;-81
2021/03/21 06:32:16;;;;;;;62.17;32.07;;;9.90;99.90;;;;;;5083794;28;20212;-80
2021/03/21 06:35:30;;;;;;;60.27;30.53;;;9.90;99.90;;;;;;5085817;28;20553;-80
2021/03/21 06:38:17;;;;;;;63.53;31.70;;;10.00;99.90;;;;;;5083774;28;20289;-82
2021/03/21 06:41:24;;;;;;;63.63;31.53;;;10.20;99.90;;;;;;5082264;28;20713;-81
2021/03/21 06:44:18;;;;;;;66.60;32.73;;;10.20;99.90;;;;;;5086793;28;20221;-80
2021/03/21 06:47:07;;;;;;;69.27;33.93;;;10.30;99.90;;;;;;5084583;28;20669;-80
2021/03/21 06:49:41;;;;;;;68.70;32.70;;;10.30;99.90;;;;;;5083013;28;20177;-80
2021/03/21 06:52:19;;;;;;;64.17;32.47;;;10.10;99.90;;;;;;5077914;28;20184;-80
2021/03/21 06:55:04;;;;;;;67.10;32.57;;;10.00;99.90;;;;;;5076860;28;20274;-81
2021/03/21 06:57:58;;;;;;;63.87;33.50;;;9.90;99.90;;;;;;5078151;28;20217;-79
2021/03/21 07:00:42;;;;;;;62.87;31.33;;;9.80;99.90;;;;;;5083760;28;20184;-80
2021/03/21 07:03:26;;;;;;;68.93;34.03;;;9.70;99.90;;;;;;5077630;28;20188;-79
2021/03/21 07:06:09;;;;;;;66.73;33.07;;;9.40;99.90;;;;;;5082462;28;20515;-80
2021/03/21 07:08:47;;;;;;;66.63;33.70;;;9.30;99.90;;;;;;5085783;28;20659;-80
2021/03/21 07:11:34;;;;;;;64.63;32.70;;;9.40;99.90;;;;;;5072570;28;20172;-80
2021/03/21 07:14:25;;;;;;;66.70;34.43;;;9.50;99.90;;;;;;5069944;28;20661;-79
2021/03/21 07:17:27;;;;;;;59.73;29.97;;;9.60;99.90;;;;;;5070230;28;20207;-79
2021/03/21 07:20:30;;;;;;;66.97;32.90;;;9.40;99.90;;;;;;5086859;28;20235;-81
2021/03/21 07:23:34;;;;;;;70.63;32.17;;;9.30;99.90;;;;;;5084849;28;20651;-80
2021/03/21 07:26:00;;;;;;;59.80;32.77;;;9.30;99.90;;;;;;5083879;28;20203;-82
2021/03/21 07:29:03;;;;;;;62.10;31.57;;;9.40;99.90;;;;;;5063096;28;20252;-79
2021/03/21 07:31:53;;;;;;;63.73;33.67;;;9.40;99.90;;;;;;5080717;28;20183;-79
2021/03/21 07:34:34;;;;;;;58.87;31.37;;;9.30;99.90;;;;;;5070960;28;20228;-80
2021/03/21 07:37:13;;;;;;;58.77;32.47;;;9.30;99.90;;;;;;5081017;28;20190;-80
2021/03/21 07:40:17;;;;;;;56.63;32.13;;;9.20;99.90;;;;;;5101199;28;20278;-80
2021/03/21 07:42:51;;;;;;;60.27;32.53;;;9.30;99.90;;;;;;5065488;28;20227;-80
2021/03/21 07:45:56;;;;;;;51.90;29.97;;;9.20;99.90;;;;;;5082764;28;20350;-80
2021/03/21 07:48:41;;;;;;;47.60;26.37;;;9.30;99.90;;;;;;5079632;28;20533;-80
2021/03/21 07:51:17;;;;;;;46.83;24.70;;;9.50;99.90;;;;;;5071913;28;20555;-78
2021/03/21 07:54:08;;;;;;;43.70;24.10;;;9.40;99.90;;;;;;5065940;28;20668;-80
2021/03/21 07:56:47;;;;;;;35.87;20.80;;;9.30;99.90;;;;;;5080967;28;20225;-80
2021/03/21 07:59:19;;;;;;;40.17;20.40;;;9.40;99.90;;;;;;5081844;28;20651;-81
2021/03/21 08:01:44;;;;;;;31.87;18.00;;;9.60;99.90;;;;;;5085517;28;20194;-80
2021/03/21 08:04:21;;;;;;;30.40;16.90;;;9.60;99.90;;;;;;5087045;28;20187;-80
2021/03/21 08:06:59;;;;;;;31.97;16.97;;;9.70;99.90;;;;;;5087841;28;20246;-81
2021/03/21 08:09:34;;;;;;;28.13;15.10;;;9.70;99.90;;;;;;5086344;28;20189;-81
2021/03/21 08:12:18;;;;;;;26.10;14.13;;;9.80;99.90;;;;;;5087422;28;20179;-80
2021/03/21 08:15:03;;;;;;;23.17;11.57;;;9.70;99.90;;;;;;5068769;28;20219;-79
2021/03/21 08:17:34;;;;;;;22.40;10.90;;;9.60;99.90;;;;;;5059113;28;20648;-80
2021/03/21 08:20:07;;;;;;;19.67;9.97;;;9.50;99.90;;;;;;5082835;28;20192;-80
2021/03/21 08:22:33;;;;;;;17.83;6.03;;;9.50;99.90;;;;;;5075090;28;20181;-80
2021/03/21 08:25:06;;;;;;;14.10;5.77;;;9.40;99.90;;;;;;5067142;28;20905;-80
2021/03/21 08:27:33;;;;;;;11.70;5.07;;;9.20;99.90;;;;;;5085115;28;20509;-80
2021/03/21 08:30:03;;;;;;;14.73;4.43;;;9.10;99.90;;;;;;5088563;28;20229;-80
2021/03/21 08:32:31;;;;;;;12.23;3.43;;;9.10;99.90;;;;;;5079187;28;20212;-79
2021/03/21 08:35:20;;;;;;;10.10;3.27;;;9.00;99.90;;;;;;5083708;28;20191;-79
2021/03/21 08:37:52;;;;;;;9.43;3.07;;;8.90;99.90;;;;;;5062494;28;20211;-80
2021/03/21 08:40:30;;;;;;;10.83;3.20;;;8.70;99.90;;;;;;5069196;28;20210;-80
2021/03/21 08:43:10;;;;;;;10.30;3.10;;;8.70;99.90;;;;;;5080643;28;20237;-81
2021/03/21 08:45:41;;;;;;;13.10;3.07;;;8.90;99.90;;;;;;5088555;28;20679;-79
2021/03/21 08:48:13;;;;;;;13.80;2.90;;;9.00;99.90;;;;;;5083994;28;20179;-80
2021/03/21 08:50:47;;;;;;;10.17;2.77;;;9.10;99.90;;;;;;5088335;28;20179;-80
2021/03/21 08:53:30;;;;;;;8.73;2.67;;;9.30;99.90;;;;;;5086309;28;20584;-81
2021/03/21 08:56:14;;;;;;;9.07;2.67;;;9.60;99.90;;;;;;5088290;28;20239;-81
2021/03/21 08:58:41;;;;;;;8.50;2.57;;;9.90;99.90;;;;;;5087518;28;20183;-81
2021/03/21 09:01:26;;;;;;;7.40;2.43;;;10.20;99.90;;;;;;5082367;28;20540;-81
2021/03/21 09:04:12;;;;;;;10.97;2.50;;;10.50;99.90;;;;;;5087153;28;20258;-80
2021/03/21 09:06:41;;;;;;;9.67;2.80;;;11.00;99.90;;;;;;5090350;28;20243;-81
2021/03/21 09:09:21;;;;;;;11.07;2.70;;;11.50;99.90;;;;;;5086451;28;20935;-80
2021/03/21 09:12:22;;;;;;;10.87;2.87;;;11.50;99.90;;;;;;5081769;28;20181;-81
2021/03/21 09:14:49;;;;;;;8.90;2.90;;;11.50;99.90;;;;;;5098852;28;20205;-80
2021/03/21 09:17:22;;;;;;;11.67;3.10;;;11.50;99.90;;;;;;5086193;28;20224;-80
2021/03/21 09:19:50;;;;;;;12.00;3.37;;;11.10;99.90;;;;;;5071029;28;20190;-80
2021/03/21 09:22:37;;;;;;;14.57;3.50;;;11.00;99.90;;;;;;5083464;28;20562;-81
2021/03/21 09:25:15;;;;;;;13.93;3.10;;;11.00;99.90;;;;;;5085910;28;20563;-81
2021/03/21 09:27:43;;;;;;;9.90;2.93;;;10.90;99.90;;;;;;5087577;28;20192;-80
2021/03/21 09:30:23;;;;;;;11.00;3.37;;;10.70;99.90;;;;;;5086520;28;20684;-81
2021/03/21 09:32:58;;;;;;;7.53;2.90;;;10.80;99.90;;;;;;5082542;28;20285;-81
2021/03/21 09:35:24;;;;;;;13.03;3.40;;;10.70;99.90;;;;;;5072207;28;20663;-81
2021/03/21 09:37:54;;;;;;;10.43;2.80;;;10.70;99.90;;;;;;5080237;28;20185;-80
2021/03/21 09:40:27;;;;;;;8.83;2.63;;;10.50;99.90;;;;;;5081693;28;20181;-82
2021/03/21 09:42:53;;;;;;;10.70;2.23;;;10.40;99.90;;;;;;5069470;28;20200;-81
2021/03/21 09:45:19;;;;;;;10.30;2.40;;;10.20;99.90;;;;;;5064744;28;20275;-80
2021/03/21 09:47:57;;;;;;;10.60;1.93;;;10.20;99.90;;;;;;5083165;28;20284;-80
2021/03/21 09:50:38;;;;;;;11.67;2.10;;;10.40;99.90;;;;;;5079026;28;21013;-80
2021/03/21 09:53:11;;;;;;;6.90;1.60;;;10.60;99.90;;;;;;5087230;28;20732;-80
2021/03/21 09:55:48;;;;;;;7.57;1.83;;;10.60;99.90;;;;;;5085083;28;20185;-80
2021/03/21 09:58:28;;;;;;;11.13;1.57;;;10.60;99.90;;;;;;5102785;28;20181;-81
2021/03/21 10:01:19;;;;;;;9.53;1.90;;;10.50;99.90;;;;;;5087315;28;20649;-80
2021/03/21 10:03:49;;;;;;;9.67;1.67;;;10.50;99.90;;;;;;5057175;28;20252;-80
2021/03/21 10:06:22;;;;;;;14.30;2.10;;;10.40;99.90;;;;;;5086757;28;20210;-80
2021/03/21 10:09:06;;;;;;;13.90;2.33;;;10.30;99.90;;;;;;5090871;28;20271;-80
2021/03/21 10:11:45;;;;;;;13.47;2.27;;;10.30;99.90;;;;;;5087301;28;20307;-80
2021/03/21 10:14:26;;;;;;;13.43;2.27;;;10.50;99.90;;;;;;5089601;28;20207;-80
2021/03/21 10:16:54;;;;;;;16.67;2.13;;;10.50;99.90;;;;;;5090291;28;20655;-80
2021/03/21 10:19:38;;;;;;;10.33;1.83;;;10.30;99.90;;;;;;5072269;28;20188;-80
2021/03/21 10:22:16;;;;;;;14.17;2.17;;;10.30;99.90;;;;;;5087647;28;20655;-80
2021/03/21 10:24:43;;;;;;;12.03;2.33;;;10.50;99.90;;;;;;5081183;28;20273;-80
2021/03/21 10:27:16;;;;;;;13.37;2.03;;;10.70;99.90;;;;;;5085418;28;20728;-80
2021/03/21 10:29:42;;;;;;;13.57;2.43;;;10.60;99.90;;;;;;5078310;28;20591;-81
2021/03/21 10:32:23;;;;;;;14.87;2.53;;;10.80;99.90;;;;;;5076736;28;20551;-81
2021/03/21 10:34:50;;;;;;;13.40;2.53;;;10.90;99.90;;;;;;5071285;28;20197;-81
2021/03/21 10:37:40;;;;;;;12.03;2.03;;;10.80;99.90;;;;;;5088273;28;20240;-81
2021/03/21 10:40:25;;;;;;;12.60;2.40;;;10.80;99.90;;;;;;5080693;28;20230;-79
2021/03/21 10:42:53;;;;;;;16.70;2.60;;;10.60;99.90;;;;;;5081088;28;20208;-82
2021/03/21 10:45:38;;;;;;;13.83;2.30;;;10.90;99.90;;;;;;5087725;28;20233;-82
2021/03/21 10:48:19;;;;;;;18.63;2.50;;;11.10;99.90;;;;;;5078159;28;20196;-81
2021/03/21 10:50:45;;;;;;;15.07;3.00;;;11.20;99.90;;;;;;5073992;28;20178;-81
2021/03/21 10:53:24;;;;;;;15.87;3.30;;;11.50;99.90;;;;;;5084166;28;20188;-81
2021/03/21 10:56:01;;;;;;;12.90;2.30;;;11.50;99.90;;;;;;5084413;28;20563;-81
2021/03/21 10:58:35;;;;;;;16.83;2.97;;;10.90;99.90;;;;;;5075803;28;20183;-83
2021/03/21 11:01:16;;;;;;;16.00;3.43;;;10.40;99.90;;;;;;5069839;28;20689;-82
2021/03/21 11:03:44;;;;;;;18.03;2.57;;;10.20;99.90;;;;;;5088487;28;20238;-82
2021/03/21 11:06:19;;;;;;;12.57;2.00;;;10.20;99.90;;;;;;5091110;28;20187;-82
2021/03/21 11:08:45;;;;;;;13.77;1.97;;;10.20;99.90;;;;;;5085059;28;20225;-82
2021/03/21 11:11:23;;;;;;;14.57;2.23;;;10.30;99.90;;;;;;5072083;28;20191;-82
2021/03/21 11:13:50;;;;;;;13.57;2.17;;;10.30;99.90;;;;;;5084606;28;20181;-82
2021/03/21 11:16:22;;;;;;;21.17;2.87;;;10.40;99.90;;;;;;5087770;28;20220;-82
2021/03/21 11:18:54;;;;;;;15.00;2.23;;;10.50;99.90;;;;;;5102211;28;20270;-81
2021/03/21 11:21:23;;;;;;;11.90;1.90;;;10.50;99.90;;;;;;5064145;28;20215;-81
2021/03/21 11:23:58;;;;;;;19.67;2.50;;;10.50;99.90;;;;;;5085553;28;20200;-81
2021/03/21 11:26:32;;;;;;;12.47;2.60;;;10.70;99.90;;;;;;5085963;28;20186;-81
2021/03/21 11:29:03;;;;;;;18.00;2.70;;;10.90;99.90;;;;;;5079139;28;20189;-82
2021/03/21 11:31:36;;;;;;;10.73;2.40;;;11.20;99.90;;;;;;5085331;28;20654;-81
2021/03/21 11:34:20;;;;;;;15.07;2.50;;;11.00;99.90;;;;;;5078230;28;20567;-81
2021/03/21 11:37:01;;;;;;;16.47;2.30;;;11.10;99.90;;;;;;5070758;28;20242;-81
2021/03/21 11:39:44;;;;;;;13.33;2.80;;;11.00;99.90;;;;;;5084815;28;20262;-81
2021/03/21 11:42:20;;;;;;;18.73;2.50;;;11.00;99.90;;;;;;5090132;28;20198;-81
2021/03/21 11:44:49;;;;;;;17.93;2.60;;;10.70;99.90;;;;;;5081312;28;20341;-81
2021/03/21 11:47:35;;;;;;;16.37;2.30;;;10.70;99.90;;;;;;5085140;28;20656;-80
2021/03/21 11:50:02;;;;;;;14.60;2.10;;;10.70;99.90;;;;;;5069060;28;20205;-82
2021/03/21 11:52:28;;;;;;;11.93;2.23;;;10.70;99.90;;;;;;5072851;28;20713;-81
2021/03/21 11:54:55;;;;;;;19.13;2.37;;;10.80;99.90;;;;;;5079983;28;20191;-79
2021/03/21 11:57:47;;;;;;;16.50;2.67;;;10.60;99.90;;;;;;5063880;28;20971;-81
2021/03/21 12:00:31;;;;;;;14.70;2.53;;;10.50;99.90;;;;;;5082691;28;20210;-79
2021/03/21 12:03:02;;;;;;;12.83;2.57;;;10.40;99.90;;;;;;5066095;28;20265;-79
2021/03/21 12:05:32;;;;;;;16.43;2.10;;;10.30;99.90;;;;;;5086953;28;20204;-77
2021/03/21 12:08:30;;;;;;;20.43;2.83;;;10.30;99.90;;;;;;5083762;28;20234;-79
2021/03/21 12:10:56;;;;;;;14.93;2.50;;;10.40;99.90;;;;;;5060333;28;20284;-79
2021/03/21 12:13:32;;;;;;;15.97;2.23;;;10.70;99.90;;;;;;5083145;28;21029;-79
2021/03/21 12:16:00;;;;;;;17.20;2.23;;;10.80;99.90;;;;;;5099434;28;20190;-78
2021/03/21 12:18:31;;;;;;;15.53;1.90;;;10.80;99.90;;;;;;5073070;28;20170;-79
2021/03/21 12:21:10;;;;;;;16.33;2.50;;;10.70;99.90;;;;;;5080178;28;20275;-78
2021/03/21 12:24:04;;;;;;;19.37;2.67;;;10.70;99.90;;;;;;5086463;28;20186;-79
2021/03/21 12:26:33;;;;;;;18.27;2.47;;;10.80;99.90;;;;;;5079527;28;20221;-78
2021/03/21 12:29:04;;;;;;;20.83;2.70;;;10.40;99.90;;;;;;5069802;28;20211;-78
2021/03/21 12:31:40;;;;;;;19.80;2.63;;;10.40;99.90;;;;;;5086825;28;20279;-78
2021/03/21 12:34:33;;;;;;;13.13;2.17;;;10.20;99.90;;;;;;5082930;28;20227;-78
2021/03/21 12:37:02;;;;;;;18.63;2.70;;;10.10;99.90;;;;;;5078942;28;20597;-79
2021/03/21 12:39:53;;;;;;;18.93;3.07;;;10.00;99.90;;;;;;5075283;28;20192;-78
2021/03/21 12:42:28;;;;;;;19.40;3.10;;;10.10;99.90;;;;;;5068806;28;20643;-80
2021/03/21 12:45:15;;;;;;;19.57;2.67;;;10.30;99.90;;;;;;5086862;28;20953;-79
2021/03/21 12:47:56;;;;;;;20.67;2.90;;;10.20;99.90;;;;;;5072452;28;20180;-78
2021/03/21 12:50:30;;;;;;;16.73;2.90;;;10.30;99.90;;;;;;5068289;28;20224;-79
2021/03/21 12:52:56;;;;;;;18.80;2.83;;;10.40;99.90;;;;;;5087302;28;20179;-79
2021/03/21 12:55:23;;;;;;;18.43;3.07;;;10.40;99.90;;;;;;5087551;28;21668;-79
2021/03/21 12:57:51;;;;;;;19.10;2.70;;;10.60;99.90;;;;;;5087247;28;20192;-80
2021/03/21 13:00:23;;;;;;;19.93;2.97;;;10.70;99.90;;;;;;5085357;28;20238;-79
2021/03/21 13:02:52;;;;;;;21.17;2.97;;;10.70;99.90;;;;;;5068524;28;20267;-80
2021/03/21 13:05:28;;;;;;;18.83;2.73;;;10.50;99.90;;;;;;5077011;28;20205;-78
2021/03/21 13:07:57;;;;;;;23.47;3.53;;;10.40;99.90;;;;;;5085661;28;20200;-79
2021/03/21 13:10:24;;;;;;;21.77;3.30;;;10.40;99.90;;;;;;5083150;28;20764;-80
2021/03/21 13:12:50;;;;;;;17.00;3.10;;;10.30;99.90;;;;;;5085795;28;20263;-79
2021/03/21 13:15:17;;;;;;;20.07;3.43;;;10.50;99.90;;;;;;5070608;28;20259;-79
2021/03/21 13:17:43;;;;;;;20.90;3.60;;;10.40;99.90;;;;;;5085986;28;20327;-79
2021/03/21 13:20:11;;;;;;;20.53;2.87;;;10.20;99.90;;;;;;5085941;28;20558;-79
2021/03/21 13:22:37;;;;;;;25.00;3.80;;;10.20;99.90;;;;;;5084606;28;20222;-80
2021/03/21 13:25:04;;;;;;;26.90;3.90;;;10.30;99.90;;;;;;5084009;28;20203;-80
2021/03/21 13:27:30;;;;;;;26.27;3.50;;;10.30;99.90;;;;;;5088090;28;20200;-80
2021/03/21 13:29:56;;;;;;;24.20;3.23;;;10.40;99.90;;;;;;5087042;28;20185;-80